Time;durP1;ratioP1;P1;durP2;ratioP2;P2;SDS_P1;SDS_P2;PMS_P1;PMS_P2;Temp;Humidity;BMP_temperature;BMP_pressure;BME280_temperature;BME280_humidity;BME280_pressure;Samples;Min_cycle;Max_cycle;Signal;HPM_P1;HPM_P2
2023/12/27 00:00:22;;;;;;;;;;;5.00;99.90;;;;;;5033869;28;19913;-88
2023/12/27 00:02:47;;;;;;;;;;;5.00;99.90;;;;;;5033272;28;19944;-88
2023/12/27 00:05:13;;;;;;;;;;;5.00;99.90;;;;;;5030608;28;19912;-88
2023/12/27 00:07:39;;;;;;;;;;;5.10;99.90;;;;;;5032785;28;19916;-88
2023/12/27 00:10:04;;;;;;;;;;;5.10;99.90;;;;;;5034312;28;19923;-88
2023/12/27 00:12:30;;;;;;;;;;;5.10;99.90;;;;;;5032732;28;19971;-88
2023/12/27 00:14:56;;;;;;;;;;;5.10;99.90;;;;;;5033971;28;19988;-88
2023/12/27 00:17:30;;;;;;;;;;;5.10;99.90;;;;;;5032996;28;19916;-88
2023/12/27 00:19:56;;;;;;;;;;;5.10;99.90;;;;;;5032714;28;19928;-88
2023/12/27 00:22:23;;;;;;;;;;;5.20;99.90;;;;;;5032436;28;19915;-88
2023/12/27 00:24:48;;;;;;;;;;;5.20;99.90;;;;;;5032987;28;20007;-88
2023/12/27 00:27:14;;;;;;;;;;;5.10;99.90;;;;;;5032723;28;20119;-87
2023/12/27 00:29:39;;;;;;;;;;;5.20;99.90;;;;;;5032321;28;19905;-88
2023/12/27 00:32:08;;;;;;;;;;;5.20;99.90;;;;;;5032168;28;19909;-88
2023/12/27 00:34:34;;;;;;;;;;;5.30;99.90;;;;;;5032367;28;19975;-88
2023/12/27 00:37:00;;;;;;;;;;;5.30;99.90;;;;;;5032574;28;20364;-88
2023/12/27 00:39:26;;;;;;;;;;;5.40;99.90;;;;;;5032637;28;19909;-88
2023/12/27 00:41:52;;;;;;;;;;;5.40;99.90;;;;;;5032356;28;20029;-88
2023/12/27 00:44:18;;;;;;;;;;;5.40;99.90;;;;;;5032283;28;19916;-88
2023/12/27 00:46:45;;;;;;;;;;;5.40;99.90;;;;;;5032471;28;19983;-88
2023/12/27 00:49:20;;;;;;;;;;;5.40;99.90;;;;;;5032274;28;20442;-88
2023/12/27 00:51:46;;;;;;;;;;;5.40;99.90;;;;;;5032438;28;19940;-88
2023/12/27 00:54:11;;;;;;;;;;;5.40;99.90;;;;;;5032465;28;19912;-88
2023/12/27 00:56:52;;;;;;;;;;;5.40;99.90;;;;;;5032451;28;19913;-88
2023/12/27 00:59:18;;;;;;;;;;;5.40;99.90;;;;;;5031729;28;20043;-89
2023/12/27 01:01:43;;;;;;;;;;;5.40;99.90;;;;;;5032258;28;20363;-88
2023/12/27 01:04:09;;;;;;;;;;;5.40;99.90;;;;;;5031747;28;19913;-88
2023/12/27 01:06:35;;;;;;;;;;;5.50;99.90;;;;;;5031613;28;19912;-87
2023/12/27 01:09:10;;;;;;;;;;;5.50;99.90;;;;;;5032491;28;19909;-87
2023/12/27 01:11:35;;;;;;;;;;;5.40;99.90;;;;;;5032488;28;19909;-88
2023/12/27 01:14:02;;;;;;;;;;;5.50;99.90;;;;;;5032324;28;19909;-87
2023/12/27 01:16:28;;;;;;;;;;;5.50;99.90;;;;;;5032639;28;19913;-87
2023/12/27 01:18:53;;;;;;;;;;;5.50;99.90;;;;;;5032607;28;19959;-88
2023/12/27 01:21:19;;;;;;;;;;;5.60;99.90;;;;;;5032284;28;19919;-88
2023/12/27 01:23:45;;;;;;;;;;;5.50;99.90;;;;;;5015631;28;20272;-88
2023/12/27 01:26:11;;;;;;;;;;;5.60;99.90;;;;;;5032145;28;19916;-89
2023/12/27 01:28:36;;;;;;;;;;;5.60;99.90;;;;;;5016456;28;19963;-88
2023/12/27 01:31:02;;;;;;;;;;;5.60;99.90;;;;;;5031806;28;19913;-88
2023/12/27 01:33:27;;;;;;;;;;;5.60;99.90;;;;;;5032155;28;19917;-88
2023/12/27 01:35:53;;;;;;;;;;;5.60;99.90;;;;;;5033718;28;20352;-88
2023/12/27 01:38:19;;;;;;;;;;;5.70;99.90;;;;;;5031548;28;19978;-89
2023/12/27 01:40:50;;;;;;;;;;;5.70;99.90;;;;;;5031616;28;19913;-88
2023/12/27 01:43:16;;;;;;;;;;;5.70;99.90;;;;;;5031600;28;19917;-87
2023/12/27 01:45:42;;;;;;;;;;;5.70;99.90;;;;;;5031508;28;20260;-88
2023/12/27 01:48:08;;;;;;;;;;;5.70;99.90;;;;;;5031910;28;19909;-88
2023/12/27 01:50:34;;;;;;;;;;;5.60;99.90;;;;;;5031896;28;19916;-88
2023/12/27 01:53:34;;;;;;;;;;;5.70;99.90;;;;;;5032330;28;19909;-88
2023/12/27 01:56:36;;;;;;;;;;;5.60;99.90;;;;;;5032321;28;20356;-88
2023/12/27 01:59:02;;;;;;;;;;;5.60;99.90;;;;;;5032071;28;19909;-88
2023/12/27 02:01:28;;;;;;;;;;;5.70;99.90;;;;;;5031943;28;19916;-88
2023/12/27 02:03:53;;;;;;;;;;;5.60;99.90;;;;;;5034735;28;20262;-88
2023/12/27 02:06:19;;;;;;;;;;;5.60;99.90;;;;;;5034041;28;19909;-88
2023/12/27 02:08:45;;;;;;;;;;;5.60;99.90;;;;;;5035221;28;20467;-87
2023/12/27 02:11:11;;;;;;;;;;;5.60;99.90;;;;;;5046941;28;19959;-88
2023/12/27 02:13:40;;;;;;;;;;;5.60;99.90;;;;;;5036949;28;20003;-88
2023/12/27 02:16:21;;;;;;;;;;;5.60;99.90;;;;;;5036364;28;20160;-88
2023/12/27 02:18:48;;;;;;;;;;;5.60;99.90;;;;;;5035540;28;20013;-89
2023/12/27 02:21:17;;;;;;;;;;;5.50;99.90;;;;;;5035200;28;19912;-88
2023/12/27 02:23:45;;;;;;;;;;;5.60;99.90;;;;;;5035071;28;20296;-87
2023/12/27 02:26:11;;;;;;;;;;;5.60;99.90;;;;;;5034991;28;19913;-88
2023/12/27 02:28:36;;;;;;;;;;;5.60;99.90;;;;;;5035035;28;20345;-88
2023/12/27 02:31:02;;;;;;;;;;;5.60;99.90;;;;;;5035066;28;19909;-87
2023/12/27 02:33:29;;;;;;;;;;;5.50;99.90;;;;;;5035531;28;20467;-87
2023/12/27 02:35:55;;;;;;;;;;;5.50;99.90;;;;;;5034720;28;19953;-88
2023/12/27 02:38:20;;;;;;;;;;;5.50;99.90;;;;;;5034578;28;19916;-88
2023/12/27 02:40:46;;;;;;;;;;;5.50;99.90;;;;;;5034765;28;19913;-88
2023/12/27 02:43:14;;;;;;;;;;;5.50;99.90;;;;;;5034624;28;20269;-88
2023/12/27 02:45:40;;;;;;;;;;;5.40;99.90;;;;;;5017925;28;19913;-88
2023/12/27 02:48:06;;;;;;;;;;;5.50;99.90;;;;;;5034292;28;20471;-88
2023/12/27 02:50:31;;;;;;;;;;;5.50;99.90;;;;;;5034097;28;19909;-89
2023/12/27 02:52:57;;;;;;;;;;;5.50;99.90;;;;;;5034270;28;20451;-88
2023/12/27 02:55:22;;;;;;;;;;;5.50;99.90;;;;;;5034300;28;19959;-88
2023/12/27 02:57:48;;;;;;;;;;;5.40;99.90;;;;;;5034299;28;19935;-88
2023/12/27 03:00:14;;;;;;;;;;;5.50;99.90;;;;;;5034597;28;19916;-88
2023/12/27 03:02:45;;;;;;;;;;;5.50;99.90;;;;;;5034859;28;20360;-88
2023/12/27 03:05:11;;;;;;;;;;;5.50;99.90;;;;;;5032123;28;19921;-88
2023/12/27 03:07:37;;;;;;;;;;;5.40;99.90;;;;;;5034565;28;19959;-88
2023/12/27 03:10:03;;;;;;;;;;;5.40;99.90;;;;;;5018212;28;20008;-88
2023/12/27 03:12:29;;;;;;;;;;;5.40;99.90;;;;;;5034248;28;19909;-88
2023/12/27 03:14:54;;;;;;;;;;;5.50;99.90;;;;;;5034372;28;19959;-88
2023/12/27 03:17:22;;;;;;;;;;;5.40;99.90;;;;;;5034965;28;19913;-88
2023/12/27 03:19:48;;;;;;;;;;;5.50;99.90;;;;;;5034578;28;19957;-87
2023/12/27 03:22:13;;;;;;;;;;;5.50;99.90;;;;;;5033048;28;19920;-88
2023/12/27 03:24:39;;;;;;;;;;;5.50;99.90;;;;;;5017247;28;19913;-88
2023/12/27 03:27:05;;;;;;;;;;;5.50;99.90;;;;;;5033352;28;19913;-88
2023/12/27 03:29:30;;;;;;;;;;;5.50;99.90;;;;;;5017239;28;19909;-88
2023/12/27 03:32:00;;;;;;;;;;;5.50;99.90;;;;;;5033510;28;19925;-88
2023/12/27 03:34:26;;;;;;;;;;;5.40;99.90;;;;;;5033678;28;20376;-88
2023/12/27 03:36:52;;;;;;;;;;;5.40;99.90;;;;;;5033419;28;19913;-88
2023/12/27 03:39:17;;;;;;;;;;;5.50;99.90;;;;;;5033369;28;19912;-88
2023/12/27 03:41:43;;;;;;;;;;;5.50;99.90;;;;;;5033401;28;19959;-88
2023/12/27 03:44:08;;;;;;;;;;;5.50;99.90;;;;;;5033412;28;20207;-87
2023/12/27 03:46:34;;;;;;;;;;;5.60;99.90;;;;;;5033433;28;19921;-88
2023/12/27 03:49:00;;;;;;;;;;;5.40;99.90;;;;;;5033211;28;19915;-87
2023/12/27 03:51:25;;;;;;;;;;;5.40;99.90;;;;;;5032838;28;19920;-88
2023/12/27 03:53:51;;;;;;;;;;;5.40;99.90;;;;;;5033382;28;19909;-88
2023/12/27 03:56:17;;;;;;;;;;;5.40;99.90;;;;;;5016539;28;19909;-88
2023/12/27 03:58:43;;;;;;;;;;;5.40;99.90;;;;;;5032736;28;20418;-88
2023/12/27 04:01:09;;;;;;;;;;;5.40;99.90;;;;;;5033213;28;19963;-89
2023/12/27 04:03:34;;;;;;;;;;;5.50;99.90;;;;;;5032347;28;19940;-88
2023/12/27 04:06:00;;;;;;;;;;;5.40;99.90;;;;;;5030697;28;19966;-88
2023/12/27 04:08:27;;;;;;;;;;;5.40;99.90;;;;;;5033414;28;20351;-88
2023/12/27 04:10:52;;;;;;;;;;;5.40;99.90;;;;;;5016564;28;19956;-87
2023/12/27 04:13:18;;;;;;;;;;;5.40;99.90;;;;;;5032885;28;19945;-88
2023/12/27 04:15:50;;;;;;;;;;;5.40;99.90;;;;;;5032665;28;19913;-88
2023/12/27 04:18:16;;;;;;;;;;;5.30;99.90;;;;;;5015830;28;19909;-88
2023/12/27 04:20:41;;;;;;;;;;;5.30;99.90;;;;;;5032330;28;20255;-88
2023/12/27 04:23:07;;;;;;;;;;;5.40;99.90;;;;;;5032591;28;19915;-88
2023/12/27 04:25:32;;;;;;;;;;;5.40;99.90;;;;;;5032452;28;19978;-87
2023/12/27 04:28:00;;;;;;;;;;;5.30;99.90;;;;;;5033001;28;19905;-88
2023/12/27 04:30:25;;;;;;;;;;;5.30;99.90;;;;;;5032685;28;19967;-88
2023/12/27 04:32:52;;;;;;;;;;;5.30;99.90;;;;;;5032076;28;19947;-87
2023/12/27 04:35:17;;;;;;;;;;;5.30;99.90;;;;;;5032459;28;19909;-87
2023/12/27 04:37:43;;;;;;;;;;;5.20;99.90;;;;;;5032216;28;19962;-88
2023/12/27 04:40:09;;;;;;;;;;;5.20;99.90;;;;;;5032328;28;20360;-88
2023/12/27 04:42:34;;;;;;;;;;;5.20;99.90;;;;;;5032904;28;19917;-87
2023/12/27 04:45:00;;;;;;;;;;;5.20;99.90;;;;;;5032495;28;19909;-88
2023/12/27 04:47:26;;;;;;;;;;;5.20;99.90;;;;;;5032096;28;20024;-89
2023/12/27 04:49:51;;;;;;;;;;;5.30;99.90;;;;;;5032362;28;20374;-88
2023/12/27 04:52:18;;;;;;;;;;;5.30;99.90;;;;;;5032020;28;19916;-88
2023/12/27 04:54:44;;;;;;;;;;;5.30;99.90;;;;;;5031828;28;20396;-87
2023/12/27 04:57:10;;;;;;;;;;;5.40;99.90;;;;;;5031731;28;19909;-88
2023/12/27 04:59:35;;;;;;;;;;;5.40;99.90;;;;;;5032532;28;20275;-89
2023/12/27 05:02:01;;;;;;;;;;;5.30;99.90;;;;;;5032027;28;19909;-88
2023/12/27 05:04:27;;;;;;;;;;;5.40;99.90;;;;;;5032274;28;19924;-88
2023/12/27 05:06:52;;;;;;;;;;;5.30;99.90;;;;;;5032151;28;19920;-88
2023/12/27 05:09:18;;;;;;;;;;;5.30;99.90;;;;;;5032487;28;20008;-88
2023/12/27 05:11:43;;;;;;;;;;;5.30;99.90;;;;;;5032251;28;19916;-87
2023/12/27 05:14:09;;;;;;;;;;;5.30;99.90;;;;;;5032333;28;19916;-88
2023/12/27 05:16:35;;;;;;;;;;;5.40;99.90;;;;;;5032055;28;19935;-88
2023/12/27 05:19:00;;;;;;;;;;;5.30;99.90;;;;;;5033239;28;20007;-88
2023/12/27 05:21:26;;;;;;;;;;;5.40;99.90;;;;;;5032162;28;19924;-88
2023/12/27 05:23:51;;;;;;;;;;;5.40;99.90;;;;;;5032691;28;20615;-88
2023/12/27 05:26:17;;;;;;;;;;;5.30;99.90;;;;;;5032884;28;19913;-88
2023/12/27 05:28:55;;;;;;;;;;;5.30;99.90;;;;;;5032992;28;19956;-88
2023/12/27 05:31:21;;;;;;;;;;;5.30;99.90;;;;;;5032479;28;19932;-88
2023/12/27 05:33:46;;;;;;;;;;;5.20;99.90;;;;;;5017544;28;19913;-88
2023/12/27 05:36:21;;;;;;;;;;;5.30;99.90;;;;;;5034688;28;19956;-88
2023/12/27 05:38:47;;;;;;;;;;;5.30;99.90;;;;;;5038065;28;19905;-87
2023/12/27 05:41:13;;;;;;;;;;;5.30;99.90;;;;;;5038997;28;20340;-87
2023/12/27 05:43:38;;;;;;;;;;;5.30;99.90;;;;;;5034070;28;19913;-88
2023/12/27 05:46:04;;;;;;;;;;;5.30;99.90;;;;;;5036955;28;19913;-88
2023/12/27 05:48:30;;;;;;;;;;;5.20;99.90;;;;;;5037809;28;19912;-88
2023/12/27 05:50:56;;;;;;;;;;;5.30;99.90;;;;;;5036385;28;19924;-88
2023/12/27 05:53:22;;;;;;;;;;;5.30;99.90;;;;;;5035977;28;19905;-88
2023/12/27 05:55:47;;;;;;;;;;;5.30;99.90;;;;;;5035827;28;20008;-88
2023/12/27 05:58:13;;;;;;;;;;;5.30;99.90;;;;;;5035678;28;19917;-88
2023/12/27 06:00:38;;;;;;;;;;;5.30;99.90;;;;;;5035927;28;20008;-88
2023/12/27 06:03:04;;;;;;;;;;;5.30;99.90;;;;;;5019179;28;19913;-88
2023/12/27 06:05:30;;;;;;;;;;;5.30;99.90;;;;;;5035823;28;20431;-88
2023/12/27 06:07:55;;;;;;;;;;;5.30;99.90;;;;;;5036015;28;20320;-88
2023/12/27 06:10:21;;;;;;;;;;;5.30;99.90;;;;;;5035954;28;19909;-88
2023/12/27 06:12:47;;;;;;;;;;;5.30;99.90;;;;;;5035453;28;20334;-88
2023/12/27 06:15:13;;;;;;;;;;;5.20;99.90;;;;;;5035445;28;19909;-88
2023/12/27 06:17:39;;;;;;;;;;;5.20;99.90;;;;;;5019458;28;19938;-88
2023/12/27 06:20:05;;;;;;;;;;;5.20;99.90;;;;;;5035570;28;20353;-88
2023/12/27 06:22:31;;;;;;;;;;;5.20;99.90;;;;;;5035408;28;20587;-88
2023/12/27 06:24:56;;;;;;;;;;;5.30;99.90;;;;;;5034993;28;19917;-88
2023/12/27 06:27:22;;;;;;;;;;;5.20;99.90;;;;;;5035199;28;20662;-88
2023/12/27 06:29:47;;;;;;;;;;;5.20;99.90;;;;;;5035043;28;20353;-88
2023/12/27 06:32:13;;;;;;;;;;;5.30;99.90;;;;;;5034851;28;19909;-88
2023/12/27 06:34:39;;;;;;;;;;;5.30;99.90;;;;;;5034505;28;19916;-88
2023/12/27 06:37:04;;;;;;;;;;;5.20;99.90;;;;;;5034454;28;19909;-88
2023/12/27 06:39:30;;;;;;;;;;;5.30;99.90;;;;;;5034541;28;19913;-88
2023/12/27 06:41:55;;;;;;;;;;;5.30;99.90;;;;;;5032868;28;19909;-88
2023/12/27 06:44:21;;;;;;;;;;;5.30;99.90;;;;;;5034563;28;19913;-88
2023/12/27 06:46:46;;;;;;;;;;;5.30;99.90;;;;;;5034877;28;19967;-88
2023/12/27 06:49:12;;;;;;;;;;;5.30;99.90;;;;;;5034952;28;19955;-87
2023/12/27 06:52:09;;;;;;;;;;;5.40;99.90;;;;;;5034306;28;19909;-88
2023/12/27 06:54:34;;;;;;;;;;;5.30;99.90;;;;;;5034620;28;20444;-87
2023/12/27 06:57:00;;;;;;;;;;;5.30;99.90;;;;;;5033262;28;19905;-88
2023/12/27 06:59:26;;;;;;;;;;;5.30;99.90;;;;;;5034359;28;19916;-88
2023/12/27 07:01:51;;;;;;;;;;;5.40;99.90;;;;;;5034415;28;19917;-88
2023/12/27 07:04:17;;;;;;;;;;;5.40;99.90;;;;;;5034299;28;19963;-87
2023/12/27 07:06:43;;;;;;;;;;;5.40;99.90;;;;;;5035341;28;20360;-88
2023/12/27 07:09:09;;;;;;;;;;;5.40;99.90;;;;;;5034693;28;19981;-87
2023/12/27 07:11:35;;;;;;;;;;;5.20;99.90;;;;;;5034423;28;19909;-88
2023/12/27 07:14:00;;;;;;;;;;;5.30;99.90;;;;;;5034145;28;19936;-88
2023/12/27 07:16:26;;;;;;;;;;;5.30;99.90;;;;;;5034360;28;20283;-88
2023/12/27 07:18:52;;;;;;;;;;;5.30;99.90;;;;;;5034170;28;19909;-88
2023/12/27 07:21:18;;;;;;;;;;;5.30;99.90;;;;;;5033836;28;20003;-86
2023/12/27 07:23:44;;;;;;;;;;;5.30;99.90;;;;;;5034516;28;19913;-86
2023/12/27 07:26:13;;;;;;;;;;;5.30;99.90;;;;;;5033389;28;20019;-87
2023/12/27 07:28:39;;;;;;;;;;;5.30;99.90;;;;;;5033004;28;19916;-87
2023/12/27 07:31:06;;;;;;;;;;;5.30;99.90;;;;;;5016496;28;19936;-87
2023/12/27 07:33:31;;;;;;;;;;;5.40;99.90;;;;;;5032803;28;19932;-87
2023/12/27 07:35:57;;;;;;;;;;;5.40;99.90;;;;;;5032563;28;19909;-87
2023/12/27 07:38:24;;;;;;;;;;;5.40;99.90;;;;;;5033583;28;19909;-87
2023/12/27 07:40:50;;;;;;;;;;;5.40;99.90;;;;;;5033703;28;20379;-87
2023/12/27 07:43:16;;;;;;;;;;;5.40;99.90;;;;;;5033395;28;19913;-87
2023/12/27 07:45:44;;;;;;;;;;;5.40;99.90;;;;;;5016724;28;20284;-87
2023/12/27 07:48:09;;;;;;;;;;;5.40;99.90;;;;;;5032908;28;19909;-88
2023/12/27 07:50:36;;;;;;;;;;;5.50;99.90;;;;;;5033252;28;19999;-88
2023/12/27 07:56:30;;;;;;;;;;;5.60;99.90;;;;;;5033923;28;19916;-87
2023/12/27 07:58:55;;;;;;;;;;;5.70;99.90;;;;;;5032491;28;19909;-87
2023/12/27 08:01:21;;;;;;;;;;;5.70;99.90;;;;;;5031553;28;19920;-87
2023/12/27 08:03:47;;;;;;;;;;;5.70;99.90;;;;;;5032144;28;19932;-87
2023/12/27 08:06:12;;;;;;;;;;;5.70;99.90;;;;;;5032302;28;19978;-88
2023/12/27 08:08:38;;;;;;;;;;;5.80;99.90;;;;;;5031947;28;19916;-87
2023/12/27 08:11:04;;;;;;;;;;;5.80;99.90;;;;;;5031280;28;19963;-87
2023/12/27 08:13:33;;;;;;;;;;;5.80;99.90;;;;;;5032251;28;20022;-87
2023/12/27 08:16:07;;;;;;;;;;;5.80;99.90;;;;;;5032278;28;20289;-87
2023/12/27 08:18:33;;;;;;;;;;;5.90;99.90;;;;;;5032699;28;20377;-85
2023/12/27 08:20:59;;;;;;;;;;;6.00;99.90;;;;;;5033040;28;19915;-87
2023/12/27 08:23:25;;;;;;;;;;;6.00;99.90;;;;;;5033062;28;19909;-87
2023/12/27 08:25:50;;;;;;;;;;;6.10;99.90;;;;;;5033305;28;19921;-88
2023/12/27 08:28:16;;;;;;;;;;;6.30;99.90;;;;;;5033077;28;20245;-87
2023/12/27 08:30:42;;;;;;;;;;;6.30;99.90;;;;;;5032354;28;20304;-87
2023/12/27 08:33:07;;;;;;;;;;;6.40;99.90;;;;;;5032508;28;20291;-87
2023/12/27 08:35:33;;;;;;;;;;;6.50;99.90;;;;;;5032398;28;20264;-87
2023/12/27 08:37:59;;;;;;;;;;;6.50;99.90;;;;;;5032396;28;19921;-87
2023/12/27 08:40:25;;;;;;;;;;;6.50;99.90;;;;;;5032863;28;20323;-87
2023/12/27 08:42:50;;;;;;;;;;;6.60;99.90;;;;;;5032086;28;20011;-87
2023/12/27 08:45:16;;;;;;;;;;;6.60;99.90;;;;;;5031983;28;19916;-87
2023/12/27 08:47:42;;;;;;;;;;;6.60;99.90;;;;;;5032339;28;20006;-86
2023/12/27 08:50:08;;;;;;;;;;;6.60;99.90;;;;;;5032308;28;20374;-87
2023/12/27 08:52:34;;;;;;;;;;;6.60;99.90;;;;;;5032075;28;19996;-87
2023/12/27 08:55:00;;;;;;;;;;;6.70;99.90;;;;;;5031578;28;19913;-87
2023/12/27 08:57:27;;;;;;;;;;;6.60;99.90;;;;;;5032416;28;19920;-88
2023/12/27 09:00:00;;;;;;;;;;;6.60;99.90;;;;;;5034033;28;19913;-88
2023/12/27 09:02:29;;;;;;;;;;;6.60;99.90;;;;;;5032673;28;19909;-87
2023/12/27 09:04:54;;;;;;;;;;;6.70;99.90;;;;;;5039991;28;19927;-87
2023/12/27 09:07:20;;;;;;;;;;;6.70;99.90;;;;;;5032474;28;20011;-87
2023/12/27 09:09:45;;;;;;;;;;;6.70;99.90;;;;;;5032375;28;19920;-88
2023/12/27 09:12:11;;;;;;;;;;;6.80;99.90;;;;;;5033126;28;20364;-88
2023/12/27 09:14:39;;;;;;;;;;;6.80;99.90;;;;;;5031643;28;19905;-87
2023/12/27 09:17:05;;;;;;;;;;;6.90;99.90;;;;;;5031658;28;20065;-87
2023/12/27 09:19:32;;;;;;;;;;;7.10;99.90;;;;;;5015546;28;20288;-88
2023/12/27 09:21:57;;;;;;;;;;;7.20;99.90;;;;;;5034949;28;20023;-88
2023/12/27 09:24:23;;;;;;;;;;;7.30;99.90;;;;;;5052254;28;20335;-88
2023/12/27 09:26:49;;;;;;;;;;;7.20;99.90;;;;;;5036486;28;19912;-88
2023/12/27 09:29:15;;;;;;;;;;;7.10;99.90;;;;;;5036002;28;19913;-88
2023/12/27 09:31:41;;;;;;;;;;;7.00;99.90;;;;;;5036203;28;19927;-88
2023/12/27 09:34:07;;;;;;;;;;;7.00;99.90;;;;;;5020302;28;19913;-87
2023/12/27 09:36:32;;;;;;;;;;;7.00;99.90;;;;;;5036687;28;19933;-87
2023/12/27 09:39:01;;;;;;;;;;;7.00;99.90;;;;;;5036651;28;19932;-88
2023/12/27 09:41:26;;;;;;;;;;;6.90;99.90;;;;;;5035896;28;19979;-88
2023/12/27 09:43:53;;;;;;;;;;;6.80;99.90;;;;;;5036211;28;19948;-92
2023/12/27 09:46:35;;;;;;;;;;;6.80;99.90;;;;;;5036977;28;19912;-89
2023/12/27 09:49:01;;;;;;;;;;;6.80;99.90;;;;;;5036497;28;20422;-88
2023/12/27 09:51:28;;;;;;;;;;;6.80;99.90;;;;;;5036654;28;19909;-88
2023/12/27 09:53:53;;;;;;;;;;;6.70;99.90;;;;;;5036297;28;20272;-88
2023/12/27 09:56:20;;;;;;;;;;;6.60;99.90;;;;;;5035775;28;19909;-88
2023/12/27 09:58:49;;;;;;;;;;;6.50;99.90;;;;;;5036030;28;19916;-88
2023/12/27 10:01:15;;;;;;;;;;;6.40;99.90;;;;;;5036348;28;19909;-88
2023/12/27 10:03:41;;;;;;;;;;;6.40;99.90;;;;;;5037452;28;19923;-88
2023/12/27 10:06:14;;;;;;;;;;;6.50;99.90;;;;;;5035975;28;19913;-88
2023/12/27 10:08:40;;;;;;;;;;;6.60;99.90;;;;;;5036487;28;19916;-88
2023/12/27 10:11:12;;;;;;;;;;;6.80;99.90;;;;;;5035850;28;20349;-88
2023/12/27 10:13:40;;;;;;;;;;;6.90;99.90;;;;;;5036997;28;20360;-88
2023/12/27 10:16:07;;;;;;;;;;;6.90;99.90;;;;;;5036244;28;19963;-88
2023/12/27 10:18:33;;;;;;;;;;;7.00;99.90;;;;;;5035658;28;19948;-88
2023/12/27 10:20:59;;;;;;;;;;;7.10;99.90;;;;;;5036017;28;20407;-89
2023/12/27 10:23:24;;;;;;;;;;;7.20;99.90;;;;;;5036253;28;19916;-89
2023/12/27 10:26:06;;;;;;;;;;;7.10;99.90;;;;;;5035688;28;19913;-88
2023/12/27 10:28:32;;;;;;;;;;;7.10;99.90;;;;;;5035498;28;20280;-88
2023/12/27 10:30:57;;;;;;;;;;;7.00;99.90;;;;;;5035446;28;19912;-89
2023/12/27 10:33:23;;;;;;;;;;;6.90;99.90;;;;;;5034874;28;20049;-88
2023/12/27 10:35:49;;;;;;;;;;;6.90;99.90;;;;;;5035720;28;19916;-88
2023/12/27 10:38:15;;;;;;;;;;;6.90;99.90;;;;;;5035867;28;19913;-88
2023/12/27 10:40:41;;;;;;;;;;;7.00;99.90;;;;;;5035495;28;19913;-88
2023/12/27 10:43:08;;;;;;;;;;;7.00;99.90;;;;;;5018635;28;19924;-89
2023/12/27 10:45:33;;;;;;;;;;;7.10;99.90;;;;;;5034715;28;19916;-88
2023/12/27 10:48:01;;;;;;;;;;;7.20;99.90;;;;;;5034766;28;19913;-89
2023/12/27 10:50:27;;;;;;;;;;;7.10;99.90;;;;;;5035453;28;19920;-88
2023/12/27 10:53:03;;;;;;;;;;;7.10;99.90;;;;;;5035006;28;19919;-88
2023/12/27 10:55:29;;;;;;;;;;;7.10;99.90;;;;;;5034773;28;19909;-89
2023/12/27 10:58:23;;;;;;;;;;;7.10;99.90;;;;;;5034836;28;19951;-88
2023/12/27 11:00:48;;;;;;;;;;;7.20;99.90;;;;;;5034584;28;19987;-89
2023/12/27 11:03:14;;;;;;;;;;;7.30;99.90;;;;;;5034242;28;20459;-89
2023/12/27 11:05:40;;;;;;;;;;;7.20;99.90;;;;;;5034623;28;19919;-88
2023/12/27 11:08:06;;;;;;;;;;;7.10;99.90;;;;;;5017935;28;19909;-88
2023/12/27 11:10:34;;;;;;;;;;;7.00;99.90;;;;;;5035063;28;19913;-89
2023/12/27 11:13:01;;;;;;;;;;;7.00;99.90;;;;;;5034645;28;19909;-89
2023/12/27 11:15:29;;;;;;;;;;;7.20;99.90;;;;;;5035414;28;19909;-87
2023/12/27 11:17:56;;;;;;;;;;;7.20;99.90;;;;;;5034298;28;19913;-89
2023/12/27 11:20:24;;;;;;;;;;;7.20;99.90;;;;;;5034302;28;19909;-87
2023/12/27 11:22:50;;;;;;;;;;;7.20;99.90;;;;;;5034988;28;19916;-88
2023/12/27 11:25:16;;;;;;;;;;;7.20;99.90;;;;;;5034534;28;19909;-89
2023/12/27 11:27:42;;;;;;;;;;;7.10;99.90;;;;;;5034201;28;19916;-88
2023/12/27 11:30:12;;;;;;;;;;;7.10;99.90;;;;;;5034302;28;19916;-88
2023/12/27 11:32:44;;;;;;;;;;;7.10;99.90;;;;;;5034055;28;19916;-88
2023/12/27 11:35:10;;;;;;;;;;;7.10;99.90;;;;;;5034130;28;19963;-89
2023/12/27 11:40:43;;;;;;;;;;;7.10;99.90;;;;;;5050924;28;19963;-88
2023/12/27 11:43:09;;;;;;;;;;;7.10;99.90;;;;;;5034044;28;20436;-89
2023/12/27 11:46:01;;;;;;;;;;;7.10;99.90;;;;;;5033318;28;20015;-89
2023/12/27 11:48:31;;;;;;;;;;;7.10;99.90;;;;;;5033596;28;19920;-88
2023/12/27 11:51:00;;;;;;;;;;;7.10;99.90;;;;;;5034233;28;19909;-88
2023/12/27 11:53:27;;;;;;;;;;;7.20;99.90;;;;;;5034098;28;19913;-88
2023/12/27 11:55:53;;;;;;;;;;;7.20;99.90;;;;;;5033829;28;19909;-88
2023/12/27 11:58:37;;;;;;;;;;;7.20;99.90;;;;;;5033932;28;20379;-89
2023/12/27 12:01:21;;;;;;;;;;;7.10;99.90;;;;;;5034052;28;19920;-89
2023/12/27 12:03:56;;;;;;;;;;;7.10;99.90;;;;;;5033187;28;20284;-88
2023/12/27 12:06:31;;;;;;;;;;;7.00;99.90;;;;;;5034048;28;19917;-89
2023/12/27 12:08:58;;;;;;;;;;;7.10;99.90;;;;;;5033674;28;20392;-89
2023/12/27 12:11:24;;;;;;;;;;;7.10;99.90;;;;;;5033712;28;20603;-88
2023/12/27 12:13:50;;;;;;;;;;;7.10;99.90;;;;;;5033397;28;19909;-88
2023/12/27 12:16:16;;;;;;;;;;;7.10;99.90;;;;;;5033129;28;20410;-89
2023/12/27 12:18:54;;;;;;;;;;;7.10;99.90;;;;;;5033995;28;19985;-89
2023/12/27 12:21:20;;;;;;;;;;;7.10;99.90;;;;;;5033737;28;19916;-89
2023/12/27 12:23:47;;;;;;;;;;;7.30;99.90;;;;;;5033469;28;19909;-88
2023/12/27 12:26:13;;;;;;;;;;;7.20;99.90;;;;;;5033807;28;19982;-87
2023/12/27 12:28:39;;;;;;;;;;;7.20;99.90;;;;;;5033043;28;20372;-88
2023/12/27 12:31:04;;;;;;;;;;;7.30;99.90;;;;;;5032968;28;19916;-88
2023/12/27 12:33:49;;;;;;;;;;;7.30;99.90;;;;;;5017153;28;19909;-88
2023/12/27 12:36:16;;;;;;;;;;;7.40;99.90;;;;;;5033517;28;20391;-89
2023/12/27 12:38:42;;;;;;;;;;;7.50;99.90;;;;;;5033301;28;20036;-88
2023/12/27 12:41:07;;;;;;;;;;;7.50;99.90;;;;;;5033596;28;20510;-89
2023/12/27 12:43:33;;;;;;;;;;;7.50;99.90;;;;;;5033421;28;19935;-89
2023/12/27 12:45:59;;;;;;;;;;;7.50;99.90;;;;;;5033253;28;19913;-89
2023/12/27 12:48:25;;;;;;;;;;;7.40;99.90;;;;;;5033203;28;19931;-88
2023/12/27 12:51:10;;;;;;;;;;;7.50;99.90;;;;;;5033108;28;19912;-88
2023/12/27 12:53:36;;;;;;;;;;;7.50;99.90;;;;;;5032721;28;19916;-89
2023/12/27 12:56:01;;;;;;;;;;;7.60;99.90;;;;;;5033485;28;19913;-90
2023/12/27 12:58:27;;;;;;;;;;;7.70;99.90;;;;;;5032573;28;19909;-89
2023/12/27 13:00:53;;;;;;;;;;;7.70;99.90;;;;;;5032586;28;19913;-90
2023/12/27 13:03:19;;;;;;;;;;;7.70;99.90;;;;;;5032722;28;19962;-88
2023/12/27 13:05:47;;;;;;;;;;;7.70;99.90;;;;;;5033184;28;19913;-89
2023/12/27 13:08:15;;;;;;;;;;;7.70;99.90;;;;;;5032874;28;19963;-88
2023/12/27 13:10:41;;;;;;;;;;;7.60;99.90;;;;;;5033161;28;19923;-89
2023/12/27 13:13:07;;;;;;;;;;;7.60;99.90;;;;;;5033019;28;19908;-87
2023/12/27 13:15:33;;;;;;;;;;;7.60;99.90;;;;;;5033503;28;19905;-88
2023/12/27 13:17:58;;;;;;;;;;;7.50;99.90;;;;;;5033297;28;19909;-88
2023/12/27 13:20:24;;;;;;;;;;;7.50;99.90;;;;;;5032691;28;20301;-89
2023/12/27 13:22:50;;;;;;;;;;;7.50;99.90;;;;;;5032572;28;19913;-88
2023/12/27 13:25:17;;;;;;;;;;;7.40;99.90;;;;;;5032532;28;20031;-89
2023/12/27 13:27:43;;;;;;;;;;;7.30;99.90;;;;;;5018727;28;20364;-88
2023/12/27 13:30:09;;;;;;;;;;;7.30;99.90;;;;;;5033258;28;20014;-90
2023/12/27 13:32:41;;;;;;;;;;;7.30;99.90;;;;;;5032902;28;19916;-89
2023/12/27 13:35:07;;;;;;;;;;;7.30;99.90;;;;;;5033019;28;19940;-89
2023/12/27 13:37:32;;;;;;;;;;;7.20;99.90;;;;;;5016356;28;19909;-90
2023/12/27 13:39:58;;;;;;;;;;;7.10;99.90;;;;;;5032972;28;20321;-89
2023/12/27 13:42:23;;;;;;;;;;;7.10;99.90;;;;;;5033177;28;19909;-89
2023/12/27 13:44:51;;;;;;;;;;;7.20;99.90;;;;;;5033114;28;20251;-90
2023/12/27 13:47:17;;;;;;;;;;;7.10;99.90;;;;;;5032231;28;19924;-89
2023/12/27 13:50:05;;;;;;;;;;;7.10;99.90;;;;;;5033193;28;19913;-89
2023/12/27 13:52:30;;;;;;;;;;;7.00;99.90;;;;;;5032887;28;19909;-89
2023/12/27 13:54:56;;;;;;;;;;;7.00;99.90;;;;;;5033257;28;19949;-90
2023/12/27 13:57:22;;;;;;;;;;;7.00;99.90;;;;;;5032611;28;19912;-89
2023/12/27 13:59:48;;;;;;;;;;;7.00;99.90;;;;;;5032786;28;19963;-89
2023/12/27 14:02:14;;;;;;;;;;;6.90;99.90;;;;;;5032513;28;20000;-89
2023/12/27 14:04:41;;;;;;;;;;;6.80;99.90;;;;;;5032176;28;19917;-89
2023/12/27 14:07:06;;;;;;;;;;;6.70;99.90;;;;;;5035338;28;20400;-89
2023/12/27 14:09:32;;;;;;;;;;;6.60;99.90;;;;;;5035933;28;19912;-89
2023/12/27 14:11:58;;;;;;;;;;;6.50;99.90;;;;;;5035463;28;19905;-88
2023/12/27 14:14:23;;;;;;;;;;;6.60;99.90;;;;;;5036133;28;19909;-89
2023/12/27 14:16:50;;;;;;;;;;;6.50;99.90;;;;;;5037157;28;20237;-89
2023/12/27 14:19:15;;;;;;;;;;;6.40;99.90;;;;;;5020161;28;19915;-89
2023/12/27 14:21:41;;;;;;;;;;;6.30;99.90;;;;;;5019917;28;19913;-89
2023/12/27 14:24:07;;;;;;;;;;;6.30;99.90;;;;;;5051800;28;19909;-88
2023/12/27 14:26:33;;;;;;;;;;;6.20;99.90;;;;;;5035503;28;19964;-88
2023/12/27 14:28:59;;;;;;;;;;;6.10;99.90;;;;;;5035863;28;19932;-89
2023/12/27 14:31:26;;;;;;;;;;;6.10;99.90;;;;;;5036108;28;19909;-89
2023/12/27 14:33:52;;;;;;;;;;;6.00;99.90;;;;;;5036076;28;20650;-89
2023/12/27 14:36:18;;;;;;;;;;;5.90;99.90;;;;;;5035374;28;19909;-88